Elettra — H9AK — position and weather

sailwx.info

Track history (hours):
 
Tides and Currents Weather Stations Pressure Air Temp Water Temp Dewpoint Dewpoint Depression Visibility Wind Speed Wind Dir Waves Ship Positions

Elettra

Last reported at 2018-Jan-22 09:57 UTC. Time now 2018-Jan-22 10:29 UTC.
Position S 32°53' E 151°46'.

Length 254 m; draft 7.8 m.

Type: Cargo ship. MMSI: 371188000.

Date/timePositionNaut miles runAvg speedWind from/ knotsBaromVisibWave heightAir tempDewpointWater temp
2018-Jan-22 09:57S 32°53' E 151°46'0 0.0
2018-Jan-22 09:27S 32°53' E 151°46'0 0.0
2018-Jan-22 09:00S 32°53' E 151°46'0 0.0
2018-Jan-22 08:30S 32°53' E 151°46'0 0.0
2018-Jan-22 08:00S 32°53' E 151°46'0 0.0
2018-Jan-22 07:30S 32°53' E 151°46'0 0.0
2018-Jan-22 07:00S 32°53' E 151°46'0 0.0
2018-Jan-22 06:18S 32°53' E 151°46'0 0.0
2018-Jan-22 06:00S 32°53' E 151°46'0 0.0
2018-Jan-22 05:30S 32°53' E 151°46'0 0.0
2018-Jan-22 05:00S 32°53' E 151°46'0 0.0
2018-Jan-22 04:30S 32°53' E 151°46'0 0.0
2018-Jan-22 03:57S 32°53' E 151°46'0 0.0
2018-Jan-22 03:27S 32°53' E 151°46'0 0.0
2018-Jan-22 03:00S 32°53' E 151°46'0 0.0
2018-Jan-22 02:30S 32°53' E 151°46'0 0.0
2018-Jan-22 02:00S 32°53' E 151°46'0 0.0
2018-Jan-22 01:30S 32°53' E 151°46'0 0.0
2018-Jan-22 01:00S 32°53' E 151°46'0 0.0
2018-Jan-22 00:30S 32°53' E 151°46'0 0.0
2018-Jan-22 00:00S 32°53' E 151°46'0 0.0
2018-Jan-21 23:30S 32°53' E 151°46'0 0.0
2018-Jan-21 23:00S 32°53' E 151°46'0 0.0
2018-Jan-21 22:30S 32°53' E 151°46'1 1.6
2018-Jan-21 22:00S 32°54' E 151°46'2 4.5
2018-Jan-21 21:30S 32°55' E 151°49'4 8.7
2018-Jan-21 21:00S 32°58' E 151°52'3 6.7
2018-Jan-21 20:30S 33°01' E 151°55'4 7.5
2018-Jan-21 20:00S 33°03' E 151°58'5 9.6
2018-Jan-21 19:31S 33°06' E 152°02'611.5
2018-Jan-21 19:00S 33°10' E 152°08'510.9
2018-Jan-21 18:30S 33°14' E 152°12'1 1.2
2018-Jan-21 17:59S 33°13' E 152°13'1 2.7
2018-Jan-21 17:30S 33°12' E 152°13'1 2.8
2018-Jan-21 16:59S 33°10' E 152°13'1 2.8
2018-Jan-21 16:28S 33°09' E 152°13'1 2.8
2018-Jan-21 16:00S 33°08' E 152°14'1 2.8
2018-Jan-21 15:30S 33°06' E 152°14'2 2.9
2018-Jan-21 14:59S 33°05' E 152°14'1 2.8
2018-Jan-21 14:28S 33°03' E 152°15'1 1.8
2018-Jan-21 14:01S 33°03' E 152°14'5 9.1
2018-Jan-21 13:30S 33°05' E 152°09'13 8.4
2018-Jan-21 12:01S 33°09' E 151°55'1 2.1
2018-Jan-21 11:30S 33°09' E 151°56'1 1.9
2018-Jan-21 11:00S 33°09' E 151°57'1 2.1
2018-Jan-21 10:30S 33°08' E 151°58'1 2.1
2018-Jan-21 10:00S 33°08' E 151°59'1 2.1
2018-Jan-21 09:30S 33°07' E 152°00'1 2.1
2018-Jan-21 09:00S 33°07' E 152°02'1 2.0
2018-Jan-21 08:30S 33°07' E 152°03'1 2.1
2018-Jan-21 08:00S 33°06' E 152°04'1 2.0
2018-Jan-21 07:30S 33°06' E 152°05'1 2.1
2018-Jan-21 07:00S 33°05' E 152°06'1 2.2
2018-Jan-21 06:30S 33°05' E 152°07'1 2.6
2018-Jan-21 06:00S 33°04' E 152°08'1 2.5
2018-Jan-21 05:30S 33°03' E 152°10'1 2.4
2018-Jan-21 04:57S 33°03' E 152°11'1 2.4
2018-Jan-21 04:30S 33°02' E 152°12'1 2.4
2018-Jan-21 04:00S 33°02' E 152°13'1 2.3
2018-Jan-21 03:30S 33°01' E 152°15'1 2.3
2018-Jan-21 03:00S 33°01' E 152°16'1 2.0
2018-Jan-21 02:30S 33°00' E 152°17'1 1.9
2018-Jan-21 02:00S 32°60' E 152°18'1 1.8
2018-Jan-21 01:30S 32°59' E 152°19'1 1.8
2018-Jan-21 01:00S 32°59' E 152°20'1 2.7
2018-Jan-21 00:30S 32°58' E 152°21'5 9.7
2018-Jan-21 00:00S 33°03' E 152°18'611.2
2018-Jan-20 23:30S 33°07' E 152°14'611.0
2018-Jan-20 23:00S 33°12' E 152°11'611.4
2018-Jan-20 22:29S 33°17' E 152°08'611.5
2018-Jan-20 22:00S 33°23' E 152°08'4 0.9
2018-Jan-20 18:04S 33°20' E 152°11'0 1.6
2018-Jan-20 17:52S 33°20' E 152°11'3 1.7
2018-Jan-20 15:53S 33°17' E 152°13'1 1.7
2018-Jan-20 15:23S 33°16' E 152°13'1 1.7
2018-Jan-20 14:55S 33°16' E 152°14'9 2.1
2018-Jan-20 10:37S 33°08' E 152°20'0 1.8
2018-Jan-20 10:28S 33°08' E 152°20'1 2.3
2018-Jan-20 10:00S 33°08' E 152°19'5 9.8
2018-Jan-20 09:30S 33°10' E 152°13'5 9.5
2018-Jan-20 09:01S 33°12' E 152°08'1 2.8
2018-Jan-20 08:31S 33°12' E 152°06'1 2.1
2018-Jan-20 08:01S 33°12' E 152°07'1 2.2
2018-Jan-20 07:30S 33°11' E 152°09'1 2.3
2018-Jan-20 07:00S 33°11' E 152°10'1 2.2
2018-Jan-20 06:30S 33°10' E 152°11'1 2.2
2018-Jan-20 06:00S 33°10' E 152°12'1 2.2
2018-Jan-20 05:30S 33°10' E 152°13'1 2.2
2018-Jan-20 05:00S 33°09' E 152°15'1 2.0
2018-Jan-20 04:30S 33°09' E 152°16'1 1.8
2018-Jan-20 04:00S 33°08' E 152°17'1 1.7
2018-Jan-20 03:29S 33°08' E 152°18'1 1.5
2018-Jan-20 03:01S 33°08' E 152°19'1 1.0
2018-Jan-20 02:30S 33°08' E 152°19'0 0.3
2018-Jan-20 02:01S 33°08' E 152°19'3 5.8
2018-Jan-20 01:31S 33°09' E 152°16'5 9.9
2018-Jan-20 01:00S 33°10' E 152°10'1 2.1
2018-Jan-20 00:30S 33°10' E 152°09'1 1.1
2018-Jan-20 00:00S 33°10' E 152°09'1 1.2
2018-Jan-19 23:30S 33°10' E 152°10'1 1.2
2018-Jan-19 23:00S 33°10' E 152°11'1 1.2
2018-Jan-19 22:27S 33°10' E 152°12'0 1.0
2018-Jan-19 21:59S 33°10' E 152°12'1 0.9
2018-Jan-19 21:27S 33°10' E 152°13'0 0.7
2018-Jan-19 20:57S 33°10' E 152°13'0 0.8
2018-Jan-19 20:30S 33°10' E 152°14'0 0.9
2018-Jan-19 20:00S 33°09' E 152°14'0 0.8
2018-Jan-19 19:26S 33°09' E 152°15'0 0.8
2018-Jan-19 18:59S 33°09' E 152°15'1 0.8
2018-Jan-19 18:24S 33°09' E 152°16'0 0.8
2018-Jan-19 18:00S 33°09' E 152°16'0 0.5
2018-Jan-19 17:30S 33°09' E 152°16'0 0.4
2018-Jan-19 17:00S 33°09' E 152°17'0 0.4
2018-Jan-19 16:29S 33°09' E 152°16'2 4.6
2018-Jan-19 16:01S 33°10' E 152°14'4 8.5
2018-Jan-19 15:30S 33°13' E 152°10'0 0.6
2018-Jan-19 15:00S 33°13' E 152°11'0 0.9
2018-Jan-19 14:30S 33°13' E 152°11'0 0.8
2018-Jan-19 14:00S 33°13' E 152°11'0 0.9
2018-Jan-19 13:30S 33°12' E 152°12'1 1.0
2018-Jan-19 12:57S 33°12' E 152°12'0 1.1
2018-Jan-19 12:30S 33°12' E 152°13'1 1.2
2018-Jan-19 11:57S 33°11' E 152°13'0 0.9
2018-Jan-19 11:27S 33°11' E 152°13'1 2.0
2018-Jan-19 11:00S 33°10' E 152°13'5 9.1
2018-Jan-19 10:30S 33°06' E 152°11'611.5
2018-Jan-19 10:00S 33°01' E 152°07'3 6.2
2018-Jan-19 09:30S 32°59' E 152°05'1 1.3
2018-Jan-19 09:00S 32°59' E 152°06'1 1.4
2018-Jan-19 08:30S 32°59' E 152°06'1 1.4
2018-Jan-19 08:00S 32°59' E 152°07'1 1.4
2018-Jan-19 07:30S 32°60' E 152°08'1 1.3
2018-Jan-19 07:00S 32°60' E 152°09'1 1.3
2018-Jan-19 06:30S 33°00' E 152°09'1 1.4
2018-Jan-19 05:30S 33°01' E 152°11'1 1.4
2018-Jan-19 05:00S 33°01' E 152°11'1 1.4
2018-Jan-19 04:30S 33°02' E 152°12'1 1.4
2018-Jan-19 04:00S 33°02' E 152°13'1 1.3
2018-Jan-19 03:30S 33°02' E 152°13'1 1.1
2018-Jan-19 03:00S 33°02' E 152°14'1 1.0
2018-Jan-19 02:30S 33°03' E 152°15'0 1.0
2018-Jan-19 02:00S 33°03' E 152°15'0 0.8
2018-Jan-19 01:30S 33°03' E 152°15'0 0.6
2018-Jan-19 01:00S 33°03' E 152°16'0 0.6
2018-Jan-19 00:30S 33°03' E 152°16'0 0.7
2018-Jan-19 00:00S 33°03' E 152°17'0 0.6
2018-Jan-18 23:30S 33°03' E 152°17'0 0.6
2018-Jan-18 22:57S 33°04' E 152°17'0 0.6
2018-Jan-18 22:30S 33°04' E 152°18'0 0.5
2018-Jan-18 22:00S 33°04' E 152°18'0 0.5
2018-Jan-18 21:30S 33°04' E 152°18'0 0.5
2018-Jan-18 21:00S 33°04' E 152°18'0 0.4
2018-Jan-18 20:30S 33°04' E 152°19'0 0.4
2018-Jan-18 20:00S 33°04' E 152°19'0 0.4
2018-Jan-18 19:30S 33°04' E 152°19'0 0.3
2018-Jan-18 19:00S 33°04' E 152°19'2 4.5
2018-Jan-18 18:30S 33°03' E 152°17'510.7
2018-Jan-18 18:00S 33°00' E 152°11'3 6.0
2018-Jan-18 17:30S 32°59' E 152°08'1 1.7
2018-Jan-18 17:00S 32°60' E 152°08'1 1.6
2018-Jan-18 16:30S 33°00' E 152°08'1 1.6
2018-Jan-18 16:00S 33°01' E 152°07'1 1.5
2018-Jan-18 15:30S 33°02' E 152°07'1 1.6
2018-Jan-18 15:00S 33°03' E 152°07'1 1.3
2018-Jan-18 14:30S 33°03' E 152°07'1 1.2
2018-Jan-18 14:00S 33°04' E 152°07'0 0.9
2018-Jan-18 13:30S 33°04' E 152°07'0 0.9
2018-Jan-18 13:00S 33°05' E 152°07'0 0.9
2018-Jan-18 12:30S 33°05' E 152°07'1 1.2
2018-Jan-18 12:00S 33°06' E 152°06'3 6.0
2018-Jan-18 11:30S 33°08' E 152°04'4 9.0
2018-Jan-18 11:00S 33°11' E 152°00'1 2.3
2018-Jan-18 10:30S 33°12' E 151°60'2 4.6
2018-Jan-18 10:00S 33°11' E 152°03'1 2.1
2018-Jan-18 09:30S 33°11' E 152°04'1 1.8
2018-Jan-18 09:00S 33°11' E 152°05'1 1.8
2018-Jan-18 08:30S 33°11' E 152°06'1 1.9
2018-Jan-18 08:00S 33°11' E 152°07'1 2.0
2018-Jan-18 07:30S 33°12' E 152°08'1 1.9
2018-Jan-18 07:00S 33°12' E 152°09'1 2.0
2018-Jan-18 06:30S 33°12' E 152°11'1 2.0
2018-Jan-18 06:00S 33°12' E 152°12'1 1.9
2018-Jan-18 05:30S 33°12' E 152°13'1 1.9
2018-Jan-18 05:00S 33°12' E 152°14'2 3.6
2018-Jan-18 04:30S 33°14' E 152°16'2 3.3
2018-Jan-18 04:00S 33°13' E 152°18'2 3.0
2018-Jan-18 03:30S 33°12' E 152°18'2 3.3
2018-Jan-18 03:00S 33°10' E 152°18'1 2.8
2018-Jan-18 02:30S 33°09' E 152°19'1 2.7
2018-Jan-18 02:00S 33°07' E 152°19'1 2.8
2018-Jan-18 01:28S 33°06' E 152°18'2 3.2
2018-Jan-18 00:59S 33°05' E 152°17'3 2.7
2018-Jan-18 00:00S 33°03' E 152°14'0 2.8
2018-Jan-17 23:57S 33°03' E 152°14'  
Track history (hours):
 
Tides and Currents Weather Stations Pressure Air Temp Water Temp Dewpoint Dewpoint Depression Visibility Wind Speed Wind Dir Waves Ship Positions

Elettra

Last reported at 2018-Jan-22 09:57 UTC. Time now 2018-Jan-22 10:29 UTC.
Position S 32°53' E 151°46'.

Length 254 m; draft 7.8 m.

Type: Cargo ship. MMSI: 371188000.

Date/timePositionNaut miles runAvg speedWind from/ knotsBaromVisibWave heightAir tempDewpointWater temp
2018-Jan-22 09:57S 32°53' E 151°46'0 0.0
2018-Jan-22 09:27S 32°53' E 151°46'0 0.0
2018-Jan-22 09:00S 32°53' E 151°46'0 0.0
2018-Jan-22 08:30S 32°53' E 151°46'0 0.0
2018-Jan-22 08:00S 32°53' E 151°46'0 0.0
2018-Jan-22 07:30S 32°53' E 151°46'0 0.0
2018-Jan-22 07:00S 32°53' E 151°46'0 0.0
2018-Jan-22 06:18S 32°53' E 151°46'0 0.0
2018-Jan-22 06:00S 32°53' E 151°46'0 0.0
2018-Jan-22 05:30S 32°53' E 151°46'0 0.0
2018-Jan-22 05:00S 32°53' E 151°46'0 0.0
2018-Jan-22 04:30S 32°53' E 151°46'0 0.0
2018-Jan-22 03:57S 32°53' E 151°46'0 0.0
2018-Jan-22 03:27S 32°53' E 151°46'0 0.0
2018-Jan-22 03:00S 32°53' E 151°46'0 0.0
2018-Jan-22 02:30S 32°53' E 151°46'0 0.0
2018-Jan-22 02:00S 32°53' E 151°46'0 0.0
2018-Jan-22 01:30S 32°53' E 151°46'0 0.0
2018-Jan-22 01:00S 32°53' E 151°46'0 0.0
2018-Jan-22 00:30S 32°53' E 151°46'0 0.0
2018-Jan-22 00:00S 32°53' E 151°46'0 0.0
2018-Jan-21 23:30S 32°53' E 151°46'0 0.0
2018-Jan-21 23:00S 32°53' E 151°46'0 0.0
2018-Jan-21 22:30S 32°53' E 151°46'1 1.6
2018-Jan-21 22:00S 32°54' E 151°46'2 4.5
2018-Jan-21 21:30S 32°55' E 151°49'4 8.7
2018-Jan-21 21:00S 32°58' E 151°52'3 6.7
2018-Jan-21 20:30S 33°01' E 151°55'4 7.5
2018-Jan-21 20:00S 33°03' E 151°58'5 9.6
2018-Jan-21 19:31S 33°06' E 152°02'611.5
2018-Jan-21 19:00S 33°10' E 152°08'510.9
2018-Jan-21 18:30S 33°14' E 152°12'1 1.2
2018-Jan-21 17:59S 33°13' E 152°13'1 2.7
2018-Jan-21 17:30S 33°12' E 152°13'1 2.8
2018-Jan-21 16:59S 33°10' E 152°13'1 2.8
2018-Jan-21 16:28S 33°09' E 152°13'1 2.8
2018-Jan-21 16:00S 33°08' E 152°14'1 2.8
2018-Jan-21 15:30S 33°06' E 152°14'2 2.9
2018-Jan-21 14:59S 33°05' E 152°14'1 2.8
2018-Jan-21 14:28S 33°03' E 152°15'1 1.8
2018-Jan-21 14:01S 33°03' E 152°14'5 9.1
2018-Jan-21 13:30S 33°05' E 152°09'13 8.4
2018-Jan-21 12:01S 33°09' E 151°55'1 2.1
2018-Jan-21 11:30S 33°09' E 151°56'1 1.9
2018-Jan-21 11:00S 33°09' E 151°57'1 2.1
2018-Jan-21 10:30S 33°08' E 151°58'1 2.1
2018-Jan-21 10:00S 33°08' E 151°59'1 2.1
2018-Jan-21 09:30S 33°07' E 152°00'1 2.1
2018-Jan-21 09:00S 33°07' E 152°02'1 2.0
2018-Jan-21 08:30S 33°07' E 152°03'1 2.1
2018-Jan-21 08:00S 33°06' E 152°04'1 2.0
2018-Jan-21 07:30S 33°06' E 152°05'1 2.1
2018-Jan-21 07:00S 33°05' E 152°06'1 2.2
2018-Jan-21 06:30S 33°05' E 152°07'1 2.6
2018-Jan-21 06:00S 33°04' E 152°08'1 2.5
2018-Jan-21 05:30S 33°03' E 152°10'1 2.4
2018-Jan-21 04:57S 33°03' E 152°11'1 2.4
2018-Jan-21 04:30S 33°02' E 152°12'1 2.4
2018-Jan-21 04:00S 33°02' E 152°13'1 2.3
2018-Jan-21 03:30S 33°01' E 152°15'1 2.3
2018-Jan-21 03:00S 33°01' E 152°16'1 2.0
2018-Jan-21 02:30S 33°00' E 152°17'1 1.9
2018-Jan-21 02:00S 32°60' E 152°18'1 1.8
2018-Jan-21 01:30S 32°59' E 152°19'1 1.8
2018-Jan-21 01:00S 32°59' E 152°20'1 2.7
2018-Jan-21 00:30S 32°58' E 152°21'5 9.7
2018-Jan-21 00:00S 33°03' E 152°18'611.2
2018-Jan-20 23:30S 33°07' E 152°14'611.0
2018-Jan-20 23:00S 33°12' E 152°11'611.4
2018-Jan-20 22:29S 33°17' E 152°08'611.5
2018-Jan-20 22:00S 33°23' E 152°08'4 0.9
2018-Jan-20 18:04S 33°20' E 152°11'0 1.6
2018-Jan-20 17:52S 33°20' E 152°11'3 1.7
2018-Jan-20 15:53S 33°17' E 152°13'1 1.7
2018-Jan-20 15:23S 33°16' E 152°13'1 1.7
2018-Jan-20 14:55S 33°16' E 152°14'9 2.1
2018-Jan-20 10:37S 33°08' E 152°20'0 1.8
2018-Jan-20 10:28S 33°08' E 152°20'1 2.3
2018-Jan-20 10:00S 33°08' E 152°19'5 9.8
2018-Jan-20 09:30S 33°10' E 152°13'5 9.5
2018-Jan-20 09:01S 33°12' E 152°08'1 2.8
2018-Jan-20 08:31S 33°12' E 152°06'1 2.1
2018-Jan-20 08:01S 33°12' E 152°07'1 2.2
2018-Jan-20 07:30S 33°11' E 152°09'1 2.3
2018-Jan-20 07:00S 33°11' E 152°10'1 2.2
2018-Jan-20 06:30S 33°10' E 152°11'1 2.2
2018-Jan-20 06:00S 33°10' E 152°12'1 2.2
2018-Jan-20 05:30S 33°10' E 152°13'1 2.2
2018-Jan-20 05:00S 33°09' E 152°15'1 2.0
2018-Jan-20 04:30S 33°09' E 152°16'1 1.8
2018-Jan-20 04:00S 33°08' E 152°17'1 1.7
2018-Jan-20 03:29S 33°08' E 152°18'1 1.5
2018-Jan-20 03:01S 33°08' E 152°19'1 1.0
2018-Jan-20 02:30S 33°08' E 152°19'0 0.3
2018-Jan-20 02:01S 33°08' E 152°19'3 5.8
2018-Jan-20 01:31S 33°09' E 152°16'5 9.9
2018-Jan-20 01:00S 33°10' E 152°10'1 2.1
2018-Jan-20 00:30S 33°10' E 152°09'1 1.1
2018-Jan-20 00:00S 33°10' E 152°09'1 1.2
2018-Jan-19 23:30S 33°10' E 152°10'1 1.2
2018-Jan-19 23:00S 33°10' E 152°11'1 1.2
2018-Jan-19 22:27S 33°10' E 152°12'0 1.0
2018-Jan-19 21:59S 33°10' E 152°12'1 0.9
2018-Jan-19 21:27S 33°10' E 152°13'0 0.7
2018-Jan-19 20:57S 33°10' E 152°13'0 0.8
2018-Jan-19 20:30S 33°10' E 152°14'0 0.9
2018-Jan-19 20:00S 33°09' E 152°14'0 0.8
2018-Jan-19 19:26S 33°09' E 152°15'0 0.8
2018-Jan-19 18:59S 33°09' E 152°15'1 0.8
2018-Jan-19 18:24S 33°09' E 152°16'0 0.8
2018-Jan-19 18:00S 33°09' E 152°16'0 0.5
2018-Jan-19 17:30S 33°09' E 152°16'0 0.4
2018-Jan-19 17:00S 33°09' E 152°17'0 0.4
2018-Jan-19 16:29S 33°09' E 152°16'2 4.6
2018-Jan-19 16:01S 33°10' E 152°14'4 8.5
2018-Jan-19 15:30S 33°13' E 152°10'0 0.6
2018-Jan-19 15:00S 33°13' E 152°11'0 0.9
2018-Jan-19 14:30S 33°13' E 152°11'0 0.8
2018-Jan-19 14:00S 33°13' E 152°11'0 0.9
2018-Jan-19 13:30S 33°12' E 152°12'1 1.0
2018-Jan-19 12:57S 33°12' E 152°12'0 1.1
2018-Jan-19 12:30S 33°12' E 152°13'1 1.2
2018-Jan-19 11:57S 33°11' E 152°13'0 0.9
2018-Jan-19 11:27S 33°11' E 152°13'1 2.0
2018-Jan-19 11:00S 33°10' E 152°13'5 9.1
2018-Jan-19 10:30S 33°06' E 152°11'611.5
2018-Jan-19 10:00S 33°01' E 152°07'3 6.2
2018-Jan-19 09:30S 32°59' E 152°05'1 1.3
2018-Jan-19 09:00S 32°59' E 152°06'1 1.4
2018-Jan-19 08:30S 32°59' E 152°06'1 1.4
2018-Jan-19 08:00S 32°59' E 152°07'1 1.4
2018-Jan-19 07:30S 32°60' E 152°08'1 1.3
2018-Jan-19 07:00S 32°60' E 152°09'1 1.3
2018-Jan-19 06:30S 33°00' E 152°09'1 1.4
2018-Jan-19 05:30S 33°01' E 152°11'1 1.4
2018-Jan-19 05:00S 33°01' E 152°11'1 1.4
2018-Jan-19 04:30S 33°02' E 152°12'1 1.4
2018-Jan-19 04:00S 33°02' E 152°13'1 1.3
2018-Jan-19 03:30S 33°02' E 152°13'1 1.1
2018-Jan-19 03:00S 33°02' E 152°14'1 1.0
2018-Jan-19 02:30S 33°03' E 152°15'0 1.0
2018-Jan-19 02:00S 33°03' E 152°15'0 0.8
2018-Jan-19 01:30S 33°03' E 152°15'0 0.6
2018-Jan-19 01:00S 33°03' E 152°16'0 0.6
2018-Jan-19 00:30S 33°03' E 152°16'0 0.7
2018-Jan-19 00:00S 33°03' E 152°17'0 0.6
2018-Jan-18 23:30S 33°03' E 152°17'0 0.6
2018-Jan-18 22:57S 33°04' E 152°17'0 0.6
2018-Jan-18 22:30S 33°04' E 152°18'0 0.5
2018-Jan-18 22:00S 33°04' E 152°18'0 0.5
2018-Jan-18 21:30S 33°04' E 152°18'0 0.5
2018-Jan-18 21:00S 33°04' E 152°18'0 0.4
2018-Jan-18 20:30S 33°04' E 152°19'0 0.4
2018-Jan-18 20:00S 33°04' E 152°19'0 0.4
2018-Jan-18 19:30S 33°04' E 152°19'0 0.3
2018-Jan-18 19:00S 33°04' E 152°19'2 4.5
2018-Jan-18 18:30S 33°03' E 152°17'510.7
2018-Jan-18 18:00S 33°00' E 152°11'3 6.0
2018-Jan-18 17:30S 32°59' E 152°08'1 1.7
2018-Jan-18 17:00S 32°60' E 152°08'1 1.6
2018-Jan-18 16:30S 33°00' E 152°08'1 1.6
2018-Jan-18 16:00S 33°01' E 152°07'1 1.5
2018-Jan-18 15:30S 33°02' E 152°07'1 1.6
2018-Jan-18 15:00S 33°03' E 152°07'1 1.3
2018-Jan-18 14:30S 33°03' E 152°07'1 1.2
2018-Jan-18 14:00S 33°04' E 152°07'0 0.9
2018-Jan-18 13:30S 33°04' E 152°07'0 0.9
2018-Jan-18 13:00S 33°05' E 152°07'0 0.9
2018-Jan-18 12:30S 33°05' E 152°07'1 1.2
2018-Jan-18 12:00S 33°06' E 152°06'3 6.0
2018-Jan-18 11:30S 33°08' E 152°04'4 9.0
2018-Jan-18 11:00S 33°11' E 152°00'1 2.3
2018-Jan-18 10:30S 33°12' E 151°60'2 4.6
2018-Jan-18 10:00S 33°11' E 152°03'1 2.1
2018-Jan-18 09:30S 33°11' E 152°04'1 1.8
2018-Jan-18 09:00S 33°11' E 152°05'1 1.8
2018-Jan-18 08:30S 33°11' E 152°06'1 1.9
2018-Jan-18 08:00S 33°11' E 152°07'1 2.0
2018-Jan-18 07:30S 33°12' E 152°08'1 1.9
2018-Jan-18 07:00S 33°12' E 152°09'1 2.0
2018-Jan-18 06:30S 33°12' E 152°11'1 2.0
2018-Jan-18 06:00S 33°12' E 152°12'1 1.9
2018-Jan-18 05:30S 33°12' E 152°13'1 1.9
2018-Jan-18 05:00S 33°12' E 152°14'2 3.6
2018-Jan-18 04:30S 33°14' E 152°16'2 3.3
2018-Jan-18 04:00S 33°13' E 152°18'2 3.0
2018-Jan-18 03:30S 33°12' E 152°18'2 3.3
2018-Jan-18 03:00S 33°10' E 152°18'1 2.8
2018-Jan-18 02:30S 33°09' E 152°19'1 2.7
2018-Jan-18 02:00S 33°07' E 152°19'1 2.8
2018-Jan-18 01:28S 33°06' E 152°18'2 3.2
2018-Jan-18 00:59S 33°05' E 152°17'3 2.7
2018-Jan-18 00:00S 33°03' E 152°14'0 2.8
2018-Jan-17 23:57S 33°03' E 152°14'  

Dump ship's entire track history